sensor_id;sensor_type;location;lat;lon;timestamp;temperature;humidity
17815;DHT22;9031;50.974;11.330;2022-12-10T00:01:10;2.50;99.90
17815;DHT22;9031;50.974;11.330;2022-12-10T00:03:36;2.40;99.90
17815;DHT22;9031;50.974;11.330;2022-12-10T00:06:04;2.50;99.90
17815;DHT22;9031;50.974;11.330;2022-12-10T00:08:30;2.60;99.90
17815;DHT22;9031;50.974;11.330;2022-12-10T00:10:56;2.60;99.90
17815;DHT22;9031;50.974;11.330;2022-12-10T00:13:22;2.60;99.90
17815;DHT22;9031;50.974;11.330;2022-12-10T00:15:47;2.40;99.90
17815;DHT22;9031;50.974;11.330;2022-12-10T00:18:13;2.50;99.90
17815;DHT22;9031;50.974;11.330;2022-12-10T00:20:38;2.40;99.90
17815;DHT22;9031;50.974;11.330;2022-12-10T00:23:04;2.30;99.90
17815;DHT22;9031;50.974;11.330;2022-12-10T00:25:29;2.30;99.90
17815;DHT22;9031;50.974;11.330;2022-12-10T00:27:56;2.40;99.90
17815;DHT22;9031;50.974;11.330;2022-12-10T00:30:22;2.30;99.90
17815;DHT22;9031;50.974;11.330;2022-12-10T00:32:47;2.20;99.90
17815;DHT22;9031;50.974;11.330;2022-12-10T00:35:12;2.10;99.90
17815;DHT22;9031;50.974;11.330;2022-12-10T00:37:38;2.10;99.90
17815;DHT22;9031;50.974;11.330;2022-12-10T00:40:04;2.20;99.90
17815;DHT22;9031;50.974;11.330;2022-12-10T00:42:30;2.20;99.90
17815;DHT22;9031;50.974;11.330;2022-12-10T00:44:55;2.20;99.90
17815;DHT22;9031;50.974;11.330;2022-12-10T00:47:21;2.30;99.90
17815;DHT22;9031;50.974;11.330;2022-12-10T00:49:46;2.20;99.90
17815;DHT22;9031;50.974;11.330;2022-12-10T00:52:12;2.20;99.90
17815;DHT22;9031;50.974;11.330;2022-12-10T00:54:37;2.30;99.90
17815;DHT22;9031;50.974;11.330;2022-12-10T00:57:03;2.20;99.90
17815;DHT22;9031;50.974;11.330;2022-12-10T00:59:28;2.20;99.90
17815;DHT22;9031;50.974;11.330;2022-12-10T01:01:54;2.20;99.90
17815;DHT22;9031;50.974;11.330;2022-12-10T01:04:19;2.20;99.90
17815;DHT22;9031;50.974;11.330;2022-12-10T01:09:13;2.30;99.90
17815;DHT22;9031;50.974;11.330;2022-12-10T01:11:41;2.20;99.90
17815;DHT22;9031;50.974;11.330;2022-12-10T01:14:10;2.30;99.90
17815;DHT22;9031;50.974;11.330;2022-12-10T01:16:35;2.20;99.90
17815;DHT22;9031;50.974;11.330;2022-12-10T01:19:02;2.20;99.90
17815;DHT22;9031;50.974;11.330;2022-12-10T01:21:29;2.10;99.90
17815;DHT22;9031;50.974;11.330;2022-12-10T01:23:55;2.10;99.90
17815;DHT22;9031;50.974;11.330;2022-12-10T01:26:25;2.20;99.90
17815;DHT22;9031;50.974;11.330;2022-12-10T01:28:51;2.10;99.90
17815;DHT22;9031;50.974;11.330;2022-12-10T01:31:23;2.00;99.90
17815;DHT22;9031;50.974;11.330;2022-12-10T01:33:49;2.00;99.90
17815;DHT22;9031;50.974;11.330;2022-12-10T01:36:21;2.00;99.90
17815;DHT22;9031;50.974;11.330;2022-12-10T01:38:47;1.90;99.90
17815;DHT22;9031;50.974;11.330;2022-12-10T01:41:22;2.00;99.90
17815;DHT22;9031;50.974;11.330;2022-12-10T01:43:57;2.00;99.90
17815;DHT22;9031;50.974;11.330;2022-12-10T01:46:26;2.00;99.90
17815;DHT22;9031;50.974;11.330;2022-12-10T01:48:52;2.00;99.90
17815;DHT22;9031;50.974;11.330;2022-12-10T01:51:19;2.10;99.90
17815;DHT22;9031;50.974;11.330;2022-12-10T01:53:45;2.00;99.90
17815;DHT22;9031;50.974;11.330;2022-12-10T01:56:11;2.00;99.90
17815;DHT22;9031;50.974;11.330;2022-12-10T01:58:38;2.00;99.90
17815;DHT22;9031;50.974;11.330;2022-12-10T02:03:51;2.20;99.90
17815;DHT22;9031;50.974;11.330;2022-12-10T02:06:31;2.10;99.90
17815;DHT22;9031;50.974;11.330;2022-12-10T02:09:11;2.00;99.90
17815;DHT22;9031;50.974;11.330;2022-12-10T02:11:41;2.10;99.90
17815;DHT22;9031;50.974;11.330;2022-12-10T02:14:23;2.20;99.90
17815;DHT22;9031;50.974;11.330;2022-12-10T02:16:59;2.20;99.90
17815;DHT22;9031;50.974;11.330;2022-12-10T02:19:50;2.20;99.90
17815;DHT22;9031;50.974;11.330;2022-12-10T02:22:19;2.10;99.90
17815;DHT22;9031;50.974;11.330;2022-12-10T02:24:47;2.20;99.90
17815;DHT22;9031;50.974;11.330;2022-12-10T02:28:05;2.10;99.90
17815;DHT22;9031;50.974;11.330;2022-12-10T02:30:06;2.10;99.90
17815;DHT22;9031;50.974;11.330;2022-12-10T02:32:44;2.00;99.90
17815;DHT22;9031;50.974;11.330;2022-12-10T02:35:26;2.00;99.90
17815;DHT22;9031;50.974;11.330;2022-12-10T02:38:17;1.90;99.90
17815;DHT22;9031;50.974;11.330;2022-12-10T02:40:47;2.00;99.90
17815;DHT22;9031;50.974;11.330;2022-12-10T02:43:14;1.90;99.90
17815;DHT22;9031;50.974;11.330;2022-12-10T02:45:41;1.90;99.90
17815;DHT22;9031;50.974;11.330;2022-12-10T02:48:08;2.00;99.90
17815;DHT22;9031;50.974;11.330;2022-12-10T02:50:34;2.00;99.90
17815;DHT22;9031;50.974;11.330;2022-12-10T02:53:00;2.00;99.90
17815;DHT22;9031;50.974;11.330;2022-12-10T02:55:25;2.00;99.90
17815;DHT22;9031;50.974;11.330;2022-12-10T02:58:28;2.10;99.90
17815;DHT22;9031;50.974;11.330;2022-12-10T03:04:32;1.80;99.90
17815;DHT22;9031;50.974;11.330;2022-12-10T03:07:03;1.90;99.90
17815;DHT22;9031;50.974;11.330;2022-12-10T03:09:38;1.90;99.90
17815;DHT22;9031;50.974;11.330;2022-12-10T03:12:47;1.90;99.90
17815;DHT22;9031;50.974;11.330;2022-12-10T03:15:08;2.00;99.90
17815;DHT22;9031;50.974;11.330;2022-12-10T03:17:34;2.00;99.90
17815;DHT22;9031;50.974;11.330;2022-12-10T03:20:02;1.90;99.90
17815;DHT22;9031;50.974;11.330;2022-12-10T03:22:29;1.90;99.90
17815;DHT22;9031;50.974;11.330;2022-12-10T03:24:55;1.90;99.90
17815;DHT22;9031;50.974;11.330;2022-12-10T03:27:23;2.00;99.90
17815;DHT22;9031;50.974;11.330;2022-12-10T03:29:51;2.00;99.90
17815;DHT22;9031;50.974;11.330;2022-12-10T03:32:19;2.00;99.90
17815;DHT22;9031;50.974;11.330;2022-12-10T03:34:46;2.10;99.90
17815;DHT22;9031;50.974;11.330;2022-12-10T03:37:13;1.90;99.90
17815;DHT22;9031;50.974;11.330;2022-12-10T03:39:40;1.90;99.90
17815;DHT22;9031;50.974;11.330;2022-12-10T03:42:06;2.00;99.90
17815;DHT22;9031;50.974;11.330;2022-12-10T03:44:33;2.10;99.90
17815;DHT22;9031;50.974;11.330;2022-12-10T03:47:00;1.90;99.90
17815;DHT22;9031;50.974;11.330;2022-12-10T03:49:26;1.90;99.90
17815;DHT22;9031;50.974;11.330;2022-12-10T03:51:51;1.80;99.90
17815;DHT22;9031;50.974;11.330;2022-12-10T03:54:17;1.80;99.90
17815;DHT22;9031;50.974;11.330;2022-12-10T03:56:42;1.80;99.90
17815;DHT22;9031;50.974;11.330;2022-12-10T03:59:08;1.70;99.90
17815;DHT22;9031;50.974;11.330;2022-12-10T04:01:33;1.70;99.90
17815;DHT22;9031;50.974;11.330;2022-12-10T04:03:59;1.70;99.90
17815;DHT22;9031;50.974;11.330;2022-12-10T04:06:24;1.80;99.90
17815;DHT22;9031;50.974;11.330;2022-12-10T04:08:52;1.90;99.90
17815;DHT22;9031;50.974;11.330;2022-12-10T04:11:18;1.90;99.90
17815;DHT22;9031;50.974;11.330;2022-12-10T04:13:43;1.90;99.90
17815;DHT22;9031;50.974;11.330;2022-12-10T04:16:31;2.00;99.90
17815;DHT22;9031;50.974;11.330;2022-12-10T04:19:05;2.00;99.90
17815;DHT22;9031;50.974;11.330;2022-12-10T04:21:33;2.00;99.90
17815;DHT22;9031;50.974;11.330;2022-12-10T04:24:19;2.00;99.90
17815;DHT22;9031;50.974;11.330;2022-12-10T04:27:11;1.90;99.90
17815;DHT22;9031;50.974;11.330;2022-12-10T04:29:37;1.90;99.90
17815;DHT22;9031;50.974;11.330;2022-12-10T04:32:03;1.80;99.90
17815;DHT22;9031;50.974;11.330;2022-12-10T04:34:28;1.80;99.90
17815;DHT22;9031;50.974;11.330;2022-12-10T04:36:54;1.70;99.90
17815;DHT22;9031;50.974;11.330;2022-12-10T04:39:20;1.60;99.90
17815;DHT22;9031;50.974;11.330;2022-12-10T04:41:48;1.60;99.90
17815;DHT22;9031;50.974;11.330;2022-12-10T04:44:14;1.50;99.90
17815;DHT22;9031;50.974;11.330;2022-12-10T04:46:40;1.60;99.90
17815;DHT22;9031;50.974;11.330;2022-12-10T04:49:06;1.70;99.90
17815;DHT22;9031;50.974;11.330;2022-12-10T04:51:32;1.80;99.90
17815;DHT22;9031;50.974;11.330;2022-12-10T04:53:58;1.80;99.90
17815;DHT22;9031;50.974;11.330;2022-12-10T04:56:24;1.80;99.90
17815;DHT22;9031;50.974;11.330;2022-12-10T04:58:49;1.80;99.90
17815;DHT22;9031;50.974;11.330;2022-12-10T05:01:15;1.70;99.90
17815;DHT22;9031;50.974;11.330;2022-12-10T05:03:41;1.80;99.90
17815;DHT22;9031;50.974;11.330;2022-12-10T05:06:09;1.70;99.90
17815;DHT22;9031;50.974;11.330;2022-12-10T05:08:36;1.70;99.90
17815;DHT22;9031;50.974;11.330;2022-12-10T05:11:07;1.90;99.90
17815;DHT22;9031;50.974;11.330;2022-12-10T05:13:33;1.90;99.90
17815;DHT22;9031;50.974;11.330;2022-12-10T05:16:02;2.10;99.90
17815;DHT22;9031;50.974;11.330;2022-12-10T05:18:28;2.20;99.90
17815;DHT22;9031;50.974;11.330;2022-12-10T05:20:53;2.10;99.90
17815;DHT22;9031;50.974;11.330;2022-12-10T05:23:19;2.10;99.90
17815;DHT22;9031;50.974;11.330;2022-12-10T05:26:14;1.90;99.90
17815;DHT22;9031;50.974;11.330;2022-12-10T05:28:45;1.80;99.90
17815;DHT22;9031;50.974;11.330;2022-12-10T05:31:16;1.90;99.90
17815;DHT22;9031;50.974;11.330;2022-12-10T05:33:42;1.90;99.90
17815;DHT22;9031;50.974;11.330;2022-12-10T05:36:10;1.90;99.90
17815;DHT22;9031;50.974;11.330;2022-12-10T05:38:36;1.90;99.90
17815;DHT22;9031;50.974;11.330;2022-12-10T05:41:04;1.90;99.90
17815;DHT22;9031;50.974;11.330;2022-12-10T05:43:30;1.80;99.90
17815;DHT22;9031;50.974;11.330;2022-12-10T05:46:04;1.90;99.90
17815;DHT22;9031;50.974;11.330;2022-12-10T05:48:30;2.00;99.90
17815;DHT22;9031;50.974;11.330;2022-12-10T05:50:56;2.10;99.90
17815;DHT22;9031;50.974;11.330;2022-12-10T05:53:22;1.90;99.90
17815;DHT22;9031;50.974;11.330;2022-12-10T05:55:48;1.90;99.90
17815;DHT22;9031;50.974;11.330;2022-12-10T05:58:14;1.90;99.90
17815;DHT22;9031;50.974;11.330;2022-12-10T06:00:40;1.90;99.90
17815;DHT22;9031;50.974;11.330;2022-12-10T06:03:06;2.00;99.90
17815;DHT22;9031;50.974;11.330;2022-12-10T06:05:39;2.10;99.90
17815;DHT22;9031;50.974;11.330;2022-12-10T06:08:05;2.20;99.90
17815;DHT22;9031;50.974;11.330;2022-12-10T06:10:33;2.20;99.90
17815;DHT22;9031;50.974;11.330;2022-12-10T06:12:59;2.20;99.90
17815;DHT22;9031;50.974;11.330;2022-12-10T06:15:24;2.20;99.90
17815;DHT22;9031;50.974;11.330;2022-12-10T06:17:50;2.20;99.90
17815;DHT22;9031;50.974;11.330;2022-12-10T06:20:15;2.20;99.90
17815;DHT22;9031;50.974;11.330;2022-12-10T06:22:41;2.20;99.90
17815;DHT22;9031;50.974;11.330;2022-12-10T06:25:06;2.10;99.90
17815;DHT22;9031;50.974;11.330;2022-12-10T06:27:32;2.00;99.90
17815;DHT22;9031;50.974;11.330;2022-12-10T06:29:57;2.00;99.90
17815;DHT22;9031;50.974;11.330;2022-12-10T06:32:24;1.90;99.90
17815;DHT22;9031;50.974;11.330;2022-12-10T06:34:49;2.00;99.90
17815;DHT22;9031;50.974;11.330;2022-12-10T06:37:15;2.00;99.90
17815;DHT22;9031;50.974;11.330;2022-12-10T06:39:40;1.80;99.90
17815;DHT22;9031;50.974;11.330;2022-12-10T06:42:06;1.80;99.90
17815;DHT22;9031;50.974;11.330;2022-12-10T06:44:31;1.80;99.90
17815;DHT22;9031;50.974;11.330;2022-12-10T06:46:57;1.90;99.90
17815;DHT22;9031;50.974;11.330;2022-12-10T06:49:22;1.80;99.90
17815;DHT22;9031;50.974;11.330;2022-12-10T06:51:48;1.80;99.90
17815;DHT22;9031;50.974;11.330;2022-12-10T06:54:14;1.60;99.90
17815;DHT22;9031;50.974;11.330;2022-12-10T06:56:39;1.60;99.90
17815;DHT22;9031;50.974;11.330;2022-12-10T06:59:05;1.50;99.90
17815;DHT22;9031;50.974;11.330;2022-12-10T07:01:34;1.70;99.90
17815;DHT22;9031;50.974;11.330;2022-12-10T07:03:59;1.60;99.90
17815;DHT22;9031;50.974;11.330;2022-12-10T07:06:26;1.50;99.90
17815;DHT22;9031;50.974;11.330;2022-12-10T07:08:54;1.50;99.90
17815;DHT22;9031;50.974;11.330;2022-12-10T07:11:22;1.60;99.90
17815;DHT22;9031;50.974;11.330;2022-12-10T07:13:47;1.60;99.90
17815;DHT22;9031;50.974;11.330;2022-12-10T07:16:14;1.70;99.90
17815;DHT22;9031;50.974;11.330;2022-12-10T07:18:40;1.80;99.90
17815;DHT22;9031;50.974;11.330;2022-12-10T07:23:44;1.70;99.90
17815;DHT22;9031;50.974;11.330;2022-12-10T07:26:09;1.70;99.90
17815;DHT22;9031;50.974;11.330;2022-12-10T07:28:35;1.70;99.90
17815;DHT22;9031;50.974;11.330;2022-12-10T07:31:02;1.80;99.90
17815;DHT22;9031;50.974;11.330;2022-12-10T07:33:28;1.80;99.90
17815;DHT22;9031;50.974;11.330;2022-12-10T07:35:53;1.70;99.90
17815;DHT22;9031;50.974;11.330;2022-12-10T07:38:19;1.80;99.90
17815;DHT22;9031;50.974;11.330;2022-12-10T07:40:44;1.80;99.90
17815;DHT22;9031;50.974;11.330;2022-12-10T07:43:10;1.70;99.90
17815;DHT22;9031;50.974;11.330;2022-12-10T07:45:35;1.80;99.90
17815;DHT22;9031;50.974;11.330;2022-12-10T07:48:01;1.90;99.90
17815;DHT22;9031;50.974;11.330;2022-12-10T07:50:26;1.90;99.90
17815;DHT22;9031;50.974;11.330;2022-12-10T07:52:52;1.80;99.90
17815;DHT22;9031;50.974;11.330;2022-12-10T07:55:17;1.70;99.90
17815;DHT22;9031;50.974;11.330;2022-12-10T07:57:43;1.90;99.90
17815;DHT22;9031;50.974;11.330;2022-12-10T08:00:09;1.80;99.90
17815;DHT22;9031;50.974;11.330;2022-12-10T08:02:35;1.80;99.90
17815;DHT22;9031;50.974;11.330;2022-12-10T08:05:00;1.70;99.90
17815;DHT22;9031;50.974;11.330;2022-12-10T08:07:26;1.50;99.90
17815;DHT22;9031;50.974;11.330;2022-12-10T08:09:51;1.60;99.90
17815;DHT22;9031;50.974;11.330;2022-12-10T08:12:17;1.60;99.90
17815;DHT22;9031;50.974;11.330;2022-12-10T08:14:42;1.80;99.90
17815;DHT22;9031;50.974;11.330;2022-12-10T08:17:08;1.70;99.90
17815;DHT22;9031;50.974;11.330;2022-12-10T08:19:33;1.50;99.90
17815;DHT22;9031;50.974;11.330;2022-12-10T08:21:59;1.40;99.90
17815;DHT22;9031;50.974;11.330;2022-12-10T08:24:24;1.40;99.90
17815;DHT22;9031;50.974;11.330;2022-12-10T08:26:50;1.60;99.90
17815;DHT22;9031;50.974;11.330;2022-12-10T08:29:15;1.60;99.90
17815;DHT22;9031;50.974;11.330;2022-12-10T08:31:41;1.50;99.90
17815;DHT22;9031;50.974;11.330;2022-12-10T08:34:12;1.70;99.90
17815;DHT22;9031;50.974;11.330;2022-12-10T08:36:38;1.80;99.90
17815;DHT22;9031;50.974;11.330;2022-12-10T08:39:04;1.80;99.90
17815;DHT22;9031;50.974;11.330;2022-12-10T08:41:29;1.70;99.90
17815;DHT22;9031;50.974;11.330;2022-12-10T08:43:55;1.70;99.90
17815;DHT22;9031;50.974;11.330;2022-12-10T08:46:21;1.60;99.90
17815;DHT22;9031;50.974;11.330;2022-12-10T08:48:47;1.50;99.90
17815;DHT22;9031;50.974;11.330;2022-12-10T08:51:15;1.60;99.90
17815;DHT22;9031;50.974;11.330;2022-12-10T08:53:41;1.60;99.90
17815;DHT22;9031;50.974;11.330;2022-12-10T08:56:07;1.60;99.90
17815;DHT22;9031;50.974;11.330;2022-12-10T08:58:32;1.50;99.90
17815;DHT22;9031;50.974;11.330;2022-12-10T09:00:58;1.60;99.90
17815;DHT22;9031;50.974;11.330;2022-12-10T09:03:24;1.50;99.90
17815;DHT22;9031;50.974;11.330;2022-12-10T09:05:50;1.60;99.90
17815;DHT22;9031;50.974;11.330;2022-12-10T09:08:16;1.50;99.90
17815;DHT22;9031;50.974;11.330;2022-12-10T09:10:41;1.40;99.90
17815;DHT22;9031;50.974;11.330;2022-12-10T09:13:07;1.40;99.90
17815;DHT22;9031;50.974;11.330;2022-12-10T09:15:33;1.30;99.90
17815;DHT22;9031;50.974;11.330;2022-12-10T09:17:58;1.30;99.90
17815;DHT22;9031;50.974;11.330;2022-12-10T09:20:24;1.30;99.90
17815;DHT22;9031;50.974;11.330;2022-12-10T09:22:49;1.40;99.90
17815;DHT22;9031;50.974;11.330;2022-12-10T09:25:15;1.30;99.90
17815;DHT22;9031;50.974;11.330;2022-12-10T09:27:42;1.30;99.90
17815;DHT22;9031;50.974;11.330;2022-12-10T09:30:10;1.30;99.90
17815;DHT22;9031;50.974;11.330;2022-12-10T09:32:35;1.30;99.90
17815;DHT22;9031;50.974;11.330;2022-12-10T09:35:01;1.40;99.90
17815;DHT22;9031;50.974;11.330;2022-12-10T09:37:26;1.50;99.90
17815;DHT22;9031;50.974;11.330;2022-12-10T09:39:52;1.50;99.90
17815;DHT22;9031;50.974;11.330;2022-12-10T09:42:34;1.60;99.90
17815;DHT22;9031;50.974;11.330;2022-12-10T09:45:26;1.70;99.90
17815;DHT22;9031;50.974;11.330;2022-12-10T09:48:47;1.70;99.90
17815;DHT22;9031;50.974;11.330;2022-12-10T09:51:13;1.70;99.90
17815;DHT22;9031;50.974;11.330;2022-12-10T09:53:42;1.50;99.90
17815;DHT22;9031;50.974;11.330;2022-12-10T09:56:21;1.50;99.90
17815;DHT22;9031;50.974;11.330;2022-12-10T09:58:47;1.60;99.90
17815;DHT22;9031;50.974;11.330;2022-12-10T10:01:16;1.50;99.90
17815;DHT22;9031;50.974;11.330;2022-12-10T10:03:43;1.40;99.90
17815;DHT22;9031;50.974;11.330;2022-12-10T10:06:12;1.40;99.90
17815;DHT22;9031;50.974;11.330;2022-12-10T10:08:41;1.40;99.90
17815;DHT22;9031;50.974;11.330;2022-12-10T10:11:13;1.50;99.90
17815;DHT22;9031;50.974;11.330;2022-12-10T10:13:42;1.60;99.90
17815;DHT22;9031;50.974;11.330;2022-12-10T10:16:28;1.60;99.90
17815;DHT22;9031;50.974;11.330;2022-12-10T10:18:59;1.50;99.90
17815;DHT22;9031;50.974;11.330;2022-12-10T10:21:30;1.50;99.90
17815;DHT22;9031;50.974;11.330;2022-12-10T10:23:57;1.40;99.90
17815;DHT22;9031;50.974;11.330;2022-12-10T10:26:25;1.50;99.90
17815;DHT22;9031;50.974;11.330;2022-12-10T10:28:59;1.30;99.90
17815;DHT22;9031;50.974;11.330;2022-12-10T10:31:29;1.40;99.90
17815;DHT22;9031;50.974;11.330;2022-12-10T10:33:58;1.60;99.90
17815;DHT22;9031;50.974;11.330;2022-12-10T10:36:26;1.50;99.90
17815;DHT22;9031;50.974;11.330;2022-12-10T10:38:52;1.50;99.90
17815;DHT22;9031;50.974;11.330;2022-12-10T10:41:18;1.50;99.90
17815;DHT22;9031;50.974;11.330;2022-12-10T10:43:44;1.70;99.90
17815;DHT22;9031;50.974;11.330;2022-12-10T10:46:11;1.60;99.90
17815;DHT22;9031;50.974;11.330;2022-12-10T10:48:38;1.50;99.90
17815;DHT22;9031;50.974;11.330;2022-12-10T10:56:12;1.50;99.90
17815;DHT22;9031;50.974;11.330;2022-12-10T10:59:06;1.60;99.90
17815;DHT22;9031;50.974;11.330;2022-12-10T11:01:46;1.60;99.90
17815;DHT22;9031;50.974;11.330;2022-12-10T11:04:14;1.60;99.90
17815;DHT22;9031;50.974;11.330;2022-12-10T11:06:40;1.50;99.90
17815;DHT22;9031;50.974;11.330;2022-12-10T11:09:06;1.40;99.90
17815;DHT22;9031;50.974;11.330;2022-12-10T11:11:39;1.60;99.90
17815;DHT22;9031;50.974;11.330;2022-12-10T11:14:25;1.50;99.90
17815;DHT22;9031;50.974;11.330;2022-12-10T11:17:00;1.40;99.90
17815;DHT22;9031;50.974;11.330;2022-12-10T11:19:26;1.40;99.90
17815;DHT22;9031;50.974;11.330;2022-12-10T11:21:52;1.40;99.90
17815;DHT22;9031;50.974;11.330;2022-12-10T11:24:19;1.50;99.90
17815;DHT22;9031;50.974;11.330;2022-12-10T11:26:57;1.50;99.90
17815;DHT22;9031;50.974;11.330;2022-12-10T11:43:31;1.40;99.90
17815;DHT22;9031;50.974;11.330;2022-12-10T11:49:12;1.40;99.90
17815;DHT22;9031;50.974;11.330;2022-12-10T11:52:06;1.50;99.90
17815;DHT22;9031;50.974;11.330;2022-12-10T12:00:25;1.80;99.90
17815;DHT22;9031;50.974;11.330;2022-12-10T12:08:51;1.90;99.90
17815;DHT22;9031;50.974;11.330;2022-12-10T12:13:53;1.90;99.90
17815;DHT22;9031;50.974;11.330;2022-12-10T12:16:26;2.00;99.90
17815;DHT22;9031;50.974;11.330;2022-12-10T12:19:13;2.10;99.90
17815;DHT22;9031;50.974;11.330;2022-12-10T12:21:40;2.00;99.90
17815;DHT22;9031;50.974;11.330;2022-12-10T12:24:44;1.90;99.90
17815;DHT22;9031;50.974;11.330;2022-12-10T12:27:40;1.80;99.90
17815;DHT22;9031;50.974;11.330;2022-12-10T12:30:06;1.90;99.90
17815;DHT22;9031;50.974;11.330;2022-12-10T12:43:44;2.00;99.90
17815;DHT22;9031;50.974;11.330;2022-12-10T12:46:20;1.70;99.90
17815;DHT22;9031;50.974;11.330;2022-12-10T12:49:00;1.40;99.90
17815;DHT22;9031;50.974;11.330;2022-12-10T12:54:22;1.50;99.90
17815;DHT22;9031;50.974;11.330;2022-12-10T12:56:58;1.50;99.90
17815;DHT22;9031;50.974;11.330;2022-12-10T13:02:22;1.60;99.90
17815;DHT22;9031;50.974;11.330;2022-12-10T13:04:50;1.70;99.90
17815;DHT22;9031;50.974;11.330;2022-12-10T13:10:18;1.70;99.90
17815;DHT22;9031;50.974;11.330;2022-12-10T13:12:49;1.60;99.90
17815;DHT22;9031;50.974;11.330;2022-12-10T13:15:36;1.60;99.90
17815;DHT22;9031;50.974;11.330;2022-12-10T13:20:49;1.80;99.90
17815;DHT22;9031;50.974;11.330;2022-12-10T13:33:59;1.70;99.90
17815;DHT22;9031;50.974;11.330;2022-12-10T13:39:33;1.60;99.90
17815;DHT22;9031;50.974;11.330;2022-12-10T13:56:05;1.60;99.90
17815;DHT22;9031;50.974;11.330;2022-12-10T14:07:13;1.80;99.90
17815;DHT22;9031;50.974;11.330;2022-12-10T14:09:48;1.70;99.90
17815;DHT22;9031;50.974;11.330;2022-12-10T14:12:17;1.70;99.90
17815;DHT22;9031;50.974;11.330;2022-12-10T14:14:46;1.80;99.90
17815;DHT22;9031;50.974;11.330;2022-12-10T14:17:17;1.70;99.90
17815;DHT22;9031;50.974;11.330;2022-12-10T14:19:45;1.70;99.90
17815;DHT22;9031;50.974;11.330;2022-12-10T14:22:22;1.70;99.90
17815;DHT22;9031;50.974;11.330;2022-12-10T14:24:50;1.70;99.90
17815;DHT22;9031;50.974;11.330;2022-12-10T14:27:23;1.70;99.90
17815;DHT22;9031;50.974;11.330;2022-12-10T14:30:00;1.80;99.90
17815;DHT22;9031;50.974;11.330;2022-12-10T14:32:35;1.70;99.90
17815;DHT22;9031;50.974;11.330;2022-12-10T14:35:03;1.50;99.90
17815;DHT22;9031;50.974;11.330;2022-12-10T14:37:31;1.30;99.90
17815;DHT22;9031;50.974;11.330;2022-12-10T14:39:59;1.30;99.90
17815;DHT22;9031;50.974;11.330;2022-12-10T14:42:25;1.60;99.90
17815;DHT22;9031;50.974;11.330;2022-12-10T14:44:59;1.60;99.90
17815;DHT22;9031;50.974;11.330;2022-12-10T14:47:32;1.50;99.90
17815;DHT22;9031;50.974;11.330;2022-12-10T14:50:00;1.50;99.90
17815;DHT22;9031;50.974;11.330;2022-12-10T14:52:32;1.50;99.90
17815;DHT22;9031;50.974;11.330;2022-12-10T14:55:00;1.40;99.90
17815;DHT22;9031;50.974;11.330;2022-12-10T14:57:35;1.40;99.90
17815;DHT22;9031;50.974;11.330;2022-12-10T15:00:12;1.40;99.90
17815;DHT22;9031;50.974;11.330;2022-12-10T15:02:44;1.50;99.90
17815;DHT22;9031;50.974;11.330;2022-12-10T15:05:20;1.50;99.90
17815;DHT22;9031;50.974;11.330;2022-12-10T15:08:07;1.40;99.90
17815;DHT22;9031;50.974;11.330;2022-12-10T15:10:40;1.40;99.90
17815;DHT22;9031;50.974;11.330;2022-12-10T15:13:07;1.40;99.90
17815;DHT22;9031;50.974;11.330;2022-12-10T15:15:39;1.40;99.90
17815;DHT22;9031;50.974;11.330;2022-12-10T15:25:57;1.70;99.90
17815;DHT22;9031;50.974;11.330;2022-12-10T15:28:26;1.70;99.90
17815;DHT22;9031;50.974;11.330;2022-12-10T15:30:56;1.70;99.90
17815;DHT22;9031;50.974;11.330;2022-12-10T15:33:31;1.50;99.90
17815;DHT22;9031;50.974;11.330;2022-12-10T15:35:58;1.70;99.90
17815;DHT22;9031;50.974;11.330;2022-12-10T15:38:24;1.60;99.90
17815;DHT22;9031;50.974;11.330;2022-12-10T15:40:50;1.40;99.90
17815;DHT22;9031;50.974;11.330;2022-12-10T15:43:28;1.30;99.90
17815;DHT22;9031;50.974;11.330;2022-12-10T15:45:55;1.40;99.90
17815;DHT22;9031;50.974;11.330;2022-12-10T15:48:21;1.40;99.90
17815;DHT22;9031;50.974;11.330;2022-12-10T15:50:47;1.60;99.90
17815;DHT22;9031;50.974;11.330;2022-12-10T15:53:16;1.70;99.90
17815;DHT22;9031;50.974;11.330;2022-12-10T15:55:46;1.80;99.90
17815;DHT22;9031;50.974;11.330;2022-12-10T15:58:13;1.60;99.90
17815;DHT22;9031;50.974;11.330;2022-12-10T16:00:39;1.50;99.90
17815;DHT22;9031;50.974;11.330;2022-12-10T16:03:13;1.50;99.90
17815;DHT22;9031;50.974;11.330;2022-12-10T16:05:39;1.70;99.90
17815;DHT22;9031;50.974;11.330;2022-12-10T16:08:27;1.70;99.90
17815;DHT22;9031;50.974;11.330;2022-12-10T16:10:56;1.60;99.90
17815;DHT22;9031;50.974;11.330;2022-12-10T16:13:29;1.70;99.90
17815;DHT22;9031;50.974;11.330;2022-12-10T16:15:58;1.70;99.90
17815;DHT22;9031;50.974;11.330;2022-12-10T16:18:25;1.40;99.90
17815;DHT22;9031;50.974;11.330;2022-12-10T16:20:51;1.30;99.90
17815;DHT22;9031;50.974;11.330;2022-12-10T16:23:16;1.20;99.90
17815;DHT22;9031;50.974;11.330;2022-12-10T16:25:43;1.30;99.90
17815;DHT22;9031;50.974;11.330;2022-12-10T16:28:20;1.40;99.90
17815;DHT22;9031;50.974;11.330;2022-12-10T16:30:53;1.40;99.90
17815;DHT22;9031;50.974;11.330;2022-12-10T16:33:21;1.40;99.90
17815;DHT22;9031;50.974;11.330;2022-12-10T16:35:47;1.60;99.90
17815;DHT22;9031;50.974;11.330;2022-12-10T16:38:13;1.50;99.90
17815;DHT22;9031;50.974;11.330;2022-12-10T16:40:41;1.40;99.90
17815;DHT22;9031;50.974;11.330;2022-12-10T16:43:16;1.30;99.90
17815;DHT22;9031;50.974;11.330;2022-12-10T16:45:41;1.30;99.90
17815;DHT22;9031;50.974;11.330;2022-12-10T16:48:08;1.30;99.90
17815;DHT22;9031;50.974;11.330;2022-12-10T16:50:34;1.60;99.90
17815;DHT22;9031;50.974;11.330;2022-12-10T16:53:05;1.70;99.90
17815;DHT22;9031;50.974;11.330;2022-12-10T16:55:33;1.80;99.90
17815;DHT22;9031;50.974;11.330;2022-12-10T16:57:59;1.70;99.90
17815;DHT22;9031;50.974;11.330;2022-12-10T17:00:24;1.60;99.90
17815;DHT22;9031;50.974;11.330;2022-12-10T17:02:51;1.70;99.90
17815;DHT22;9031;50.974;11.330;2022-12-10T17:05:29;1.70;99.90
17815;DHT22;9031;50.974;11.330;2022-12-10T17:07:55;1.60;99.90
17815;DHT22;9031;50.974;11.330;2022-12-10T17:10:20;1.40;99.90
17815;DHT22;9031;50.974;11.330;2022-12-10T17:13:09;1.40;99.90
17815;DHT22;9031;50.974;11.330;2022-12-10T17:15:35;1.30;99.90
17815;DHT22;9031;50.974;11.330;2022-12-10T17:18:01;1.30;99.90
17815;DHT22;9031;50.974;11.330;2022-12-10T17:20:27;1.40;99.90
17815;DHT22;9031;50.974;11.330;2022-12-10T17:22:54;1.50;99.90
17815;DHT22;9031;50.974;11.330;2022-12-10T17:25:20;1.40;99.90
17815;DHT22;9031;50.974;11.330;2022-12-10T17:27:45;1.30;99.90
17815;DHT22;9031;50.974;11.330;2022-12-10T17:30:14;1.20;99.90
17815;DHT22;9031;50.974;11.330;2022-12-10T17:32:41;1.30;99.90
17815;DHT22;9031;50.974;11.330;2022-12-10T17:35:06;1.30;99.90
17815;DHT22;9031;50.974;11.330;2022-12-10T17:37:36;1.30;99.90
17815;DHT22;9031;50.974;11.330;2022-12-10T17:40:09;1.20;99.90
17815;DHT22;9031;50.974;11.330;2022-12-10T17:42:36;1.10;99.90
17815;DHT22;9031;50.974;11.330;2022-12-10T17:45:02;1.10;99.90
17815;DHT22;9031;50.974;11.330;2022-12-10T17:47:28;1.20;99.90
17815;DHT22;9031;50.974;11.330;2022-12-10T17:49:53;1.30;99.90
17815;DHT22;9031;50.974;11.330;2022-12-10T17:52:19;1.10;99.90